sensor_id;sensor_type;location;lat;lon;timestamp;noise_LAeq;noise_LA_min;noise_LA_max;noise_LA01;noise_LA95
67308;Laerm;57662;51.436;5.978;2023-11-18T00:00:10;38.64;36.48;40.36;;
67308;Laerm;57662;51.436;5.978;2023-11-18T00:00:22;38.76;36.90;40.42;;
67308;Laerm;57662;51.436;5.978;2023-11-18T00:00:34;38.76;37.16;40.42;;
67308;Laerm;57662;51.436;5.978;2023-11-18T00:00:44;38.60;37.19;40.09;;
67308;Laerm;57662;51.436;5.978;2023-11-18T00:00:54;38.54;37.02;40.29;;
67308;Laerm;57662;51.436;5.978;2023-11-18T00:01:04;38.46;37.01;40.21;;
67308;Laerm;57662;51.436;5.978;2023-11-18T00:01:15;38.42;36.58;39.89;;
67308;Laerm;57662;51.436;5.978;2023-11-18T00:01:25;38.41;36.69;39.98;;
67308;Laerm;57662;51.436;5.978;2023-11-18T00:01:35;38.33;36.16;39.90;;
67308;Laerm;57662;51.436;5.978;2023-11-18T00:01:46;43.75;36.88;49.60;;
67308;Laerm;57662;51.436;5.978;2023-11-18T00:01:57;45.78;41.78;49.79;;
67308;Laerm;57662;51.436;5.978;2023-11-18T00:02:07;42.66;37.47;47.92;;
67308;Laerm;57662;51.436;5.978;2023-11-18T00:02:18;38.89;36.96;41.01;;
67308;Laerm;57662;51.436;5.978;2023-11-18T00:02:28;38.67;37.18;40.14;;
67308;Laerm;57662;51.436;5.978;2023-11-18T00:02:38;38.50;36.79;39.98;;
67308;Laerm;57662;51.436;5.978;2023-11-18T00:02:48;38.57;37.00;39.85;;
67308;Laerm;57662;51.436;5.978;2023-11-18T00:02:59;38.55;36.80;40.30;;
67308;Laerm;57662;51.436;5.978;2023-11-18T00:03:09;38.33;36.38;39.82;;
67308;Laerm;57662;51.436;5.978;2023-11-18T00:03:20;38.60;37.23;40.26;;
67308;Laerm;57662;51.436;5.978;2023-11-18T00:03:30;38.62;36.70;40.53;;
67308;Laerm;57662;51.436;5.978;2023-11-18T00:03:40;38.66;36.86;40.51;;
67308;Laerm;57662;51.436;5.978;2023-11-18T00:03:51;38.71;37.35;40.86;;
67308;Laerm;57662;51.436;5.978;2023-11-18T00:04:01;38.58;37.13;40.15;;
67308;Laerm;57662;51.436;5.978;2023-11-18T00:04:11;38.64;37.01;40.34;;
67308;Laerm;57662;51.436;5.978;2023-11-18T00:04:27;38.68;36.89;41.30;;
67308;Laerm;57662;51.436;5.978;2023-11-18T00:04:37;38.76;36.87;40.64;;
67308;Laerm;57662;51.436;5.978;2023-11-18T00:04:48;38.66;37.15;41.08;;
67308;Laerm;57662;51.436;5.978;2023-11-18T00:04:58;38.58;36.98;39.98;;
67308;Laerm;57662;51.436;5.978;2023-11-18T00:05:08;38.66;36.76;42.59;;
67308;Laerm;57662;51.436;5.978;2023-11-18T00:05:18;38.86;37.04;42.58;;
67308;Laerm;57662;51.436;5.978;2023-11-18T00:05:29;38.78;36.98;40.43;;
67308;Laerm;57662;51.436;5.978;2023-11-18T00:05:39;38.81;37.16;40.86;;
67308;Laerm;57662;51.436;5.978;2023-11-18T00:05:49;38.61;36.80;40.72;;
67308;Laerm;57662;51.436;5.978;2023-11-18T00:05:59;38.59;36.98;40.76;;
67308;Laerm;57662;51.436;5.978;2023-11-18T00:06:10;38.68;36.99;40.25;;
67308;Laerm;57662;51.436;5.978;2023-11-18T00:06:20;38.64;36.84;40.50;;
67308;Laerm;57662;51.436;5.978;2023-11-18T00:06:30;38.71;36.99;40.58;;
67308;Laerm;57662;51.436;5.978;2023-11-18T00:06:41;38.63;36.66;42.57;;
67308;Laerm;57662;51.436;5.978;2023-11-18T00:06:51;38.74;36.96;43.08;;
67308;Laerm;57662;51.436;5.978;2023-11-18T00:07:02;38.54;37.12;40.89;;
67308;Laerm;57662;51.436;5.978;2023-11-18T00:07:14;38.91;36.27;42.87;;
67308;Laerm;57662;51.436;5.978;2023-11-18T00:07:24;38.65;36.75;42.15;;
67308;Laerm;57662;51.436;5.978;2023-11-18T00:07:34;38.61;37.02;40.55;;
67308;Laerm;57662;51.436;5.978;2023-11-18T00:07:45;38.71;37.35;40.49;;
67308;Laerm;57662;51.436;5.978;2023-11-18T00:07:55;38.64;37.03;40.71;;
67308;Laerm;57662;51.436;5.978;2023-11-18T00:08:05;38.76;37.11;40.98;;
67308;Laerm;57662;51.436;5.978;2023-11-18T00:08:16;38.60;37.14;40.46;;
67308;Laerm;57662;51.436;5.978;2023-11-18T00:08:27;39.09;37.06;43.44;;
67308;Laerm;57662;51.436;5.978;2023-11-18T00:08:37;38.65;36.98;40.53;;
67308;Laerm;57662;51.436;5.978;2023-11-18T00:08:47;38.26;36.76;40.43;;
67308;Laerm;57662;51.436;5.978;2023-11-18T00:08:57;38.46;36.79;39.78;;
67308;Laerm;57662;51.436;5.978;2023-11-18T00:09:08;38.42;36.69;40.43;;
67308;Laerm;57662;51.436;5.978;2023-11-18T00:09:18;38.59;36.78;40.44;;
67308;Laerm;57662;51.436;5.978;2023-11-18T00:09:28;38.79;36.92;40.73;;
67308;Laerm;57662;51.436;5.978;2023-11-18T00:09:38;38.65;36.80;40.52;;
67308;Laerm;57662;51.436;5.978;2023-11-18T00:09:49;38.63;36.70;40.99;;
67308;Laerm;57662;51.436;5.978;2023-11-18T00:09:59;39.40;36.74;41.94;;
67308;Laerm;57662;51.436;5.978;2023-11-18T00:10:09;39.15;37.30;43.58;;
67308;Laerm;57662;51.436;5.978;2023-11-18T00:10:20;38.61;36.94;40.37;;
67308;Laerm;57662;51.436;5.978;2023-11-18T00:10:30;38.78;36.80;41.73;;
67308;Laerm;57662;51.436;5.978;2023-11-18T00:10:40;39.05;37.12;41.82;;
67308;Laerm;57662;51.436;5.978;2023-11-18T00:10:50;38.84;37.18;41.60;;
67308;Laerm;57662;51.436;5.978;2023-11-18T00:11:01;38.68;36.46;40.77;;
67308;Laerm;57662;51.436;5.978;2023-11-18T00:11:11;39.09;37.48;41.46;;
67308;Laerm;57662;51.436;5.978;2023-11-18T00:11:21;39.14;37.26;41.18;;
67308;Laerm;57662;51.436;5.978;2023-11-18T00:11:31;39.06;36.79;41.11;;
67308;Laerm;57662;51.436;5.978;2023-11-18T00:11:43;39.14;37.27;40.97;;
67308;Laerm;57662;51.436;5.978;2023-11-18T00:11:53;38.77;36.79;41.11;;
67308;Laerm;57662;51.436;5.978;2023-11-18T00:12:04;38.30;36.77;39.73;;
67308;Laerm;57662;51.436;5.978;2023-11-18T00:12:14;38.64;36.69;40.73;;
67308;Laerm;57662;51.436;5.978;2023-11-18T00:12:24;38.65;37.19;40.07;;
67308;Laerm;57662;51.436;5.978;2023-11-18T00:12:35;38.66;37.08;40.15;;
67308;Laerm;57662;51.436;5.978;2023-11-18T00:12:45;38.48;37.06;40.05;;
67308;Laerm;57662;51.436;5.978;2023-11-18T00:12:56;38.62;37.06;40.05;;
67308;Laerm;57662;51.436;5.978;2023-11-18T00:13:07;38.59;36.98;40.31;;
67308;Laerm;57662;51.436;5.978;2023-11-18T00:13:18;38.76;37.26;40.62;;
67308;Laerm;57662;51.436;5.978;2023-11-18T00:13:29;38.71;37.32;41.00;;
67308;Laerm;57662;51.436;5.978;2023-11-18T00:13:39;38.60;36.85;39.96;;
67308;Laerm;57662;51.436;5.978;2023-11-18T00:13:50;38.49;36.54;40.44;;
67308;Laerm;57662;51.436;5.978;2023-11-18T00:14:00;39.11;37.31;49.46;;
67308;Laerm;57662;51.436;5.978;2023-11-18T00:14:10;38.58;36.80;40.36;;
67308;Laerm;57662;51.436;5.978;2023-11-18T00:14:21;38.41;36.92;40.21;;
67308;Laerm;57662;51.436;5.978;2023-11-18T00:14:31;38.52;36.67;47.10;;
67308;Laerm;57662;51.436;5.978;2023-11-18T00:14:42;38.49;36.93;47.97;;
67308;Laerm;57662;51.436;5.978;2023-11-18T00:14:52;38.62;37.13;40.90;;
67308;Laerm;57662;51.436;5.978;2023-11-18T00:15:03;38.46;36.81;40.06;;
67308;Laerm;57662;51.436;5.978;2023-11-18T00:15:13;38.58;36.99;40.20;;
67308;Laerm;57662;51.436;5.978;2023-11-18T00:15:24;38.64;37.06;40.25;;
67308;Laerm;57662;51.436;5.978;2023-11-18T00:15:34;38.74;36.94;41.35;;
67308;Laerm;57662;51.436;5.978;2023-11-18T00:15:45;38.47;37.01;40.00;;
67308;Laerm;57662;51.436;5.978;2023-11-18T00:15:58;38.76;36.75;41.35;;
67308;Laerm;57662;51.436;5.978;2023-11-18T00:16:08;38.47;36.78;40.28;;
67308;Laerm;57662;51.436;5.978;2023-11-18T00:16:22;38.72;37.18;40.97;;
67308;Laerm;57662;51.436;5.978;2023-11-18T00:16:32;38.95;37.28;40.76;;
67308;Laerm;57662;51.436;5.978;2023-11-18T00:16:42;38.97;37.16;41.30;;
67308;Laerm;57662;51.436;5.978;2023-11-18T00:16:53;38.99;37.28;41.08;;
67308;Laerm;57662;51.436;5.978;2023-11-18T00:17:03;38.76;37.09;40.69;;
67308;Laerm;57662;51.436;5.978;2023-11-18T00:17:14;38.68;37.15;40.61;;
67308;Laerm;57662;51.436;5.978;2023-11-18T00:17:25;38.75;36.80;41.03;;
67308;Laerm;57662;51.436;5.978;2023-11-18T00:17:36;38.66;36.83;41.05;;
67308;Laerm;57662;51.436;5.978;2023-11-18T00:17:46;38.64;37.04;41.14;;
67308;Laerm;57662;51.436;5.978;2023-11-18T00:17:56;38.30;36.92;39.66;;
67308;Laerm;57662;51.436;5.978;2023-11-18T00:18:07;38.17;36.77;39.63;;
67308;Laerm;57662;51.436;5.978;2023-11-18T00:18:17;38.33;36.93;40.27;;
67308;Laerm;57662;51.436;5.978;2023-11-18T00:18:29;38.48;36.81;40.12;;
67308;Laerm;57662;51.436;5.978;2023-11-18T00:18:40;38.38;36.30;40.35;;
67308;Laerm;57662;51.436;5.978;2023-11-18T00:18:50;38.49;37.02;41.28;;
67308;Laerm;57662;51.436;5.978;2023-11-18T00:19:01;38.45;36.95;40.51;;
67308;Laerm;57662;51.436;5.978;2023-11-18T00:19:11;38.70;37.01;40.94;;
67308;Laerm;57662;51.436;5.978;2023-11-18T00:19:21;38.47;36.79;41.48;;
67308;Laerm;57662;51.436;5.978;2023-11-18T00:19:32;38.28;36.69;39.67;;
67308;Laerm;57662;51.436;5.978;2023-11-18T00:19:43;38.37;36.87;39.88;;
67308;Laerm;57662;51.436;5.978;2023-11-18T00:19:54;38.34;36.84;40.05;;
67308;Laerm;57662;51.436;5.978;2023-11-18T00:20:05;38.35;36.70;39.88;;
67308;Laerm;57662;51.436;5.978;2023-11-18T00:20:19;38.65;37.14;41.00;;
67308;Laerm;57662;51.436;5.978;2023-11-18T00:20:30;38.62;37.05;39.90;;
67308;Laerm;57662;51.436;5.978;2023-11-18T00:20:41;38.47;36.89;39.89;;
67308;Laerm;57662;51.436;5.978;2023-11-18T00:20:51;38.38;37.08;41.65;;
67308;Laerm;57662;51.436;5.978;2023-11-18T00:21:01;38.88;36.98;42.20;;
67308;Laerm;57662;51.436;5.978;2023-11-18T00:21:12;38.31;36.96;40.04;;
67308;Laerm;57662;51.436;5.978;2023-11-18T00:21:23;38.11;36.79;39.98;;
67308;Laerm;57662;51.436;5.978;2023-11-18T00:21:33;38.33;36.99;40.09;;
67308;Laerm;57662;51.436;5.978;2023-11-18T00:21:43;38.20;36.80;39.30;;
67308;Laerm;57662;51.436;5.978;2023-11-18T00:21:54;38.26;36.45;39.82;;
67308;Laerm;57662;51.436;5.978;2023-11-18T00:22:04;38.52;37.16;39.89;;
67308;Laerm;57662;51.436;5.978;2023-11-18T00:22:16;38.42;37.09;40.18;;
67308;Laerm;57662;51.436;5.978;2023-11-18T00:22:26;38.43;36.89;40.69;;
67308;Laerm;57662;51.436;5.978;2023-11-18T00:22:38;38.46;36.96;40.26;;
67308;Laerm;57662;51.436;5.978;2023-11-18T00:22:49;38.38;36.50;42.20;;
67308;Laerm;57662;51.436;5.978;2023-11-18T00:23:01;38.44;36.84;40.19;;
67308;Laerm;57662;51.436;5.978;2023-11-18T00:23:14;38.25;36.77;39.89;;
67308;Laerm;57662;51.436;5.978;2023-11-18T00:23:24;38.08;36.44;40.39;;
67308;Laerm;57662;51.436;5.978;2023-11-18T00:23:36;38.17;36.24;39.82;;
67308;Laerm;57662;51.436;5.978;2023-11-18T00:23:46;38.11;36.10;39.62;;
67308;Laerm;57662;51.436;5.978;2023-11-18T00:23:58;38.31;36.37;40.13;;
67308;Laerm;57662;51.436;5.978;2023-11-18T00:24:08;38.35;36.48;40.00;;
67308;Laerm;57662;51.436;5.978;2023-11-18T00:24:18;38.17;36.75;39.53;;
67308;Laerm;57662;51.436;5.978;2023-11-18T00:24:29;38.22;36.06;40.10;;
67308;Laerm;57662;51.436;5.978;2023-11-18T00:24:39;38.72;36.50;41.36;;
67308;Laerm;57662;51.436;5.978;2023-11-18T00:24:49;38.62;37.05;41.45;;
67308;Laerm;57662;51.436;5.978;2023-11-18T00:24:59;38.21;37.03;39.52;;
67308;Laerm;57662;51.436;5.978;2023-11-18T00:25:09;38.42;36.86;40.51;;
67308;Laerm;57662;51.436;5.978;2023-11-18T00:25:20;38.79;36.90;41.06;;
67308;Laerm;57662;51.436;5.978;2023-11-18T00:25:31;38.87;37.09;40.95;;
67308;Laerm;57662;51.436;5.978;2023-11-18T00:25:41;38.60;36.83;41.17;;
67308;Laerm;57662;51.436;5.978;2023-11-18T00:25:52;38.70;36.86;41.36;;
67308;Laerm;57662;51.436;5.978;2023-11-18T00:26:03;38.41;36.89;41.30;;
67308;Laerm;57662;51.436;5.978;2023-11-18T00:26:13;38.58;36.66;41.98;;
67308;Laerm;57662;51.436;5.978;2023-11-18T00:26:24;38.46;36.86;41.33;;
67308;Laerm;57662;51.436;5.978;2023-11-18T00:26:35;38.66;36.91;41.68;;
67308;Laerm;57662;51.436;5.978;2023-11-18T00:26:46;38.47;36.82;41.66;;
67308;Laerm;57662;51.436;5.978;2023-11-18T00:26:56;38.62;36.63;42.05;;
67308;Laerm;57662;51.436;5.978;2023-11-18T00:27:06;38.93;36.57;43.01;;
67308;Laerm;57662;51.436;5.978;2023-11-18T00:27:16;38.65;36.65;41.64;;
67308;Laerm;57662;51.436;5.978;2023-11-18T00:27:27;38.41;36.95;39.62;;
67308;Laerm;57662;51.436;5.978;2023-11-18T00:27:37;38.59;36.91;40.63;;
67308;Laerm;57662;51.436;5.978;2023-11-18T00:27:47;38.93;36.68;41.20;;
67308;Laerm;57662;51.436;5.978;2023-11-18T00:27:57;38.71;37.31;40.63;;
67308;Laerm;57662;51.436;5.978;2023-11-18T00:28:08;38.99;36.86;53.70;;
67308;Laerm;57662;51.436;5.978;2023-11-18T00:28:18;39.34;37.21;48.07;;
67308;Laerm;57662;51.436;5.978;2023-11-18T00:28:30;38.51;36.89;39.81;;
67308;Laerm;57662;51.436;5.978;2023-11-18T00:28:40;38.60;37.19;41.24;;
67308;Laerm;57662;51.436;5.978;2023-11-18T00:28:51;38.36;36.95;43.54;;
67308;Laerm;57662;51.436;5.978;2023-11-18T00:29:01;38.56;36.56;41.66;;
67308;Laerm;57662;51.436;5.978;2023-11-18T00:29:11;38.52;36.90;40.50;;
67308;Laerm;57662;51.436;5.978;2023-11-18T00:29:21;38.59;37.05;40.02;;
67308;Laerm;57662;51.436;5.978;2023-11-18T00:29:35;38.56;36.98;40.32;;
67308;Laerm;57662;51.436;5.978;2023-11-18T00:29:45;38.68;36.99;40.98;;
67308;Laerm;57662;51.436;5.978;2023-11-18T00:29:55;38.53;37.15;40.55;;
67308;Laerm;57662;51.436;5.978;2023-11-18T00:30:06;38.42;36.90;39.90;;
67308;Laerm;57662;51.436;5.978;2023-11-18T00:30:18;38.42;36.62;40.06;;
67308;Laerm;57662;51.436;5.978;2023-11-18T00:30:28;38.17;36.31;39.80;;
67308;Laerm;57662;51.436;5.978;2023-11-18T00:30:38;38.58;37.03;47.37;;
67308;Laerm;57662;51.436;5.978;2023-11-18T00:30:49;38.57;36.87;40.57;;
67308;Laerm;57662;51.436;5.978;2023-11-18T00:30:59;38.46;36.37;39.92;;
67308;Laerm;57662;51.436;5.978;2023-11-18T00:31:10;38.26;36.97;40.08;;
67308;Laerm;57662;51.436;5.978;2023-11-18T00:31:20;38.25;36.38;40.00;;
67308;Laerm;57662;51.436;5.978;2023-11-18T00:31:31;38.37;36.53;40.37;;
67308;Laerm;57662;51.436;5.978;2023-11-18T00:31:41;38.09;36.25;39.55;;
67308;Laerm;57662;51.436;5.978;2023-11-18T00:31:51;38.21;36.68;40.21;;
67308;Laerm;57662;51.436;5.978;2023-11-18T00:32:02;38.29;36.68;39.92;;
67308;Laerm;57662;51.436;5.978;2023-11-18T00:32:13;38.26;36.62;39.59;;
67308;Laerm;57662;51.436;5.978;2023-11-18T00:32:23;38.39;36.78;40.00;;
67308;Laerm;57662;51.436;5.978;2023-11-18T00:32:33;38.34;36.44;39.93;;
67308;Laerm;57662;51.436;5.978;2023-11-18T00:32:45;38.14;36.54;39.97;;
67308;Laerm;57662;51.436;5.978;2023-11-18T00:32:55;38.49;36.65;40.28;;
67308;Laerm;57662;51.436;5.978;2023-11-18T00:33:05;38.31;36.56;39.91;;
67308;Laerm;57662;51.436;5.978;2023-11-18T00:33:16;38.08;36.62;39.46;;
67308;Laerm;57662;51.436;5.978;2023-11-18T00:33:26;38.52;36.51;41.44;;
67308;Laerm;57662;51.436;5.978;2023-11-18T00:33:37;38.71;37.14;40.26;;
67308;Laerm;57662;51.436;5.978;2023-11-18T00:33:48;38.59;37.15;40.65;;
67308;Laerm;57662;51.436;5.978;2023-11-18T00:33:58;38.60;37.06;40.19;;
67308;Laerm;57662;51.436;5.978;2023-11-18T00:34:08;38.96;37.15;42.26;;
67308;Laerm;57662;51.436;5.978;2023-11-18T00:34:19;38.69;36.59;41.36;;
67308;Laerm;57662;51.436;5.978;2023-11-18T00:34:29;38.35;36.87;40.12;;
67308;Laerm;57662;51.436;5.978;2023-11-18T00:34:39;38.98;36.85;40.99;;
67308;Laerm;57662;51.436;5.978;2023-11-18T00:34:49;39.08;37.50;41.08;;
67308;Laerm;57662;51.436;5.978;2023-11-18T00:35:00;38.78;37.24;40.88;;
67308;Laerm;57662;51.436;5.978;2023-11-18T00:35:10;38.59;36.99;40.64;;
67308;Laerm;57662;51.436;5.978;2023-11-18T00:35:21;38.80;37.07;40.91;;
67308;Laerm;57662;51.436;5.978;2023-11-18T00:35:31;38.78;37.25;41.33;;
67308;Laerm;57662;51.436;5.978;2023-11-18T00:35:43;39.10;37.35;41.55;;
67308;Laerm;57662;51.436;5.978;2023-11-18T00:35:55;38.79;36.65;41.62;;
67308;Laerm;57662;51.436;5.978;2023-11-18T00:36:06;38.51;36.81;42.29;;
67308;Laerm;57662;51.436;5.978;2023-11-18T00:36:16;38.41;36.86;40.35;;
67308;Laerm;57662;51.436;5.978;2023-11-18T00:36:27;38.55;36.74;40.70;;
67308;Laerm;57662;51.436;5.978;2023-11-18T00:36:38;38.52;36.49;40.96;;
67308;Laerm;57662;51.436;5.978;2023-11-18T00:36:48;41.66;37.15;47.93;;
67308;Laerm;57662;51.436;5.978;2023-11-18T00:36:58;45.43;43.65;49.54;;
67308;Laerm;57662;51.436;5.978;2023-11-18T00:37:09;44.31;38.61;46.62;;
67308;Laerm;57662;51.436;5.978;2023-11-18T00:37:19;38.83;37.13;41.98;;
67308;Laerm;57662;51.436;5.978;2023-11-18T00:37:30;38.76;37.11;40.90;;
67308;Laerm;57662;51.436;5.978;2023-11-18T00:37:40;38.61;36.68;41.16;;
67308;Laerm;57662;51.436;5.978;2023-11-18T00:37:51;38.95;37.26;41.72;;
67308;Laerm;57662;51.436;5.978;2023-11-18T00:38:01;38.39;37.01;40.87;;
67308;Laerm;57662;51.436;5.978;2023-11-18T00:38:12;38.33;36.60;40.24;;
67308;Laerm;57662;51.436;5.978;2023-11-18T00:38:23;38.71;37.17;41.03;;
67308;Laerm;57662;51.436;5.978;2023-11-18T00:38:33;38.60;37.05;41.11;;
67308;Laerm;57662;51.436;5.978;2023-11-18T00:38:43;38.52;37.00;41.41;;
67308;Laerm;57662;51.436;5.978;2023-11-18T00:38:53;38.33;36.80;41.99;;
67308;Laerm;57662;51.436;5.978;2023-11-18T00:39:04;38.23;36.81;40.29;;
67308;Laerm;57662;51.436;5.978;2023-11-18T00:39:14;38.03;36.82;39.46;;
67308;Laerm;57662;51.436;5.978;2023-11-18T00:39:24;38.08;36.86;39.50;;
67308;Laerm;57662;51.436;5.978;2023-11-18T00:39:35;38.12;36.88;39.53;;
67308;Laerm;57662;51.436;5.978;2023-11-18T00:39:45;38.07;36.66;40.07;;
67308;Laerm;57662;51.436;5.978;2023-11-18T00:39:55;38.12;36.34;39.56;;
67308;Laerm;57662;51.436;5.978;2023-11-18T00:40:06;38.65;36.84;41.46;;
67308;Laerm;57662;51.436;5.978;2023-11-18T00:40:17;38.60;36.87;41.83;;
67308;Laerm;57662;51.436;5.978;2023-11-18T00:40:28;38.43;36.45;40.05;;
67308;Laerm;57662;51.436;5.978;2023-11-18T00:40:39;38.66;36.27;42.28;;
67308;Laerm;57662;51.436;5.978;2023-11-18T00:40:50;38.45;36.95;40.37;;
67308;Laerm;57662;51.436;5.978;2023-11-18T00:41:00;44.02;37.32;48.79;;
67308;Laerm;57662;51.436;5.978;2023-11-18T00:41:10;46.59;43.06;50.50;;
67308;Laerm;57662;51.436;5.978;2023-11-18T00:41:22;47.43;37.22;56.57;;
67308;Laerm;57662;51.436;5.978;2023-11-18T00:41:32;38.55;37.10;40.41;;
67308;Laerm;57662;51.436;5.978;2023-11-18T00:41:43;38.59;36.92;41.24;;
67308;Laerm;57662;51.436;5.978;2023-11-18T00:41:53;38.40;36.81;40.33;;
67308;Laerm;57662;51.436;5.978;2023-11-18T00:42:04;38.40;36.97;41.53;;
67308;Laerm;57662;51.436;5.978;2023-11-18T00:42:15;38.09;36.44;40.24;;
67308;Laerm;57662;51.436;5.978;2023-11-18T00:42:25;38.25;36.74;39.81;;
67308;Laerm;57662;51.436;5.978;2023-11-18T00:42:36;38.26;36.87;40.11;;
67308;Laerm;57662;51.436;5.978;2023-11-18T00:42:46;38.13;36.65;39.38;;
67308;Laerm;57662;51.436;5.978;2023-11-18T00:42:56;38.00;36.61;39.21;;
67308;Laerm;57662;51.436;5.978;2023-11-18T00:43:06;37.81;36.43;39.69;;
67308;Laerm;57662;51.436;5.978;2023-11-18T00:43:18;37.68;36.45;38.92;;
67308;Laerm;57662;51.436;5.978;2023-11-18T00:43:28;37.83;36.44;39.35;;
67308;Laerm;57662;51.436;5.978;2023-11-18T00:43:38;37.90;36.47;39.44;;
67308;Laerm;57662;51.436;5.978;2023-11-18T00:43:49;37.88;36.29;43.43;;
67308;Laerm;57662;51.436;5.978;2023-11-18T00:43:59;38.04;36.39;40.31;;
67308;Laerm;57662;51.436;5.978;2023-11-18T00:44:09;38.24;36.60;40.15;;
67308;Laerm;57662;51.436;5.978;2023-11-18T00:44:20;38.16;36.72;39.90;;
67308;Laerm;57662;51.436;5.978;2023-11-18T00:44:30;38.12;36.63;40.67;;
67308;Laerm;57662;51.436;5.978;2023-11-18T00:44:40;38.38;36.77;40.05;;
67308;Laerm;57662;51.436;5.978;2023-11-18T00:44:52;38.12;36.82;39.61;;
67308;Laerm;57662;51.436;5.978;2023-11-18T00:45:02;38.21;36.49;40.56;;
67308;Laerm;57662;51.436;5.978;2023-11-18T00:45:14;38.08;36.26;39.74;;
67308;Laerm;57662;51.436;5.978;2023-11-18T00:45:24;38.01;36.34;40.25;;
67308;Laerm;57662;51.436;5.978;2023-11-18T00:45:34;38.07;36.07;40.23;;
67308;Laerm;57662;51.436;5.978;2023-11-18T00:45:45;38.48;36.65;40.50;;
67308;Laerm;57662;51.436;5.978;2023-11-18T00:45:55;38.09;36.56;39.94;;
67308;Laerm;57662;51.436;5.978;2023-11-18T00:46:09;38.15;36.53;40.02;;
67308;Laerm;57662;51.436;5.978;2023-11-18T00:46:19;38.05;36.65;41.14;;
67308;Laerm;57662;51.436;5.978;2023-11-18T00:46:30;38.27;36.87;40.09;;
67308;Laerm;57662;51.436;5.978;2023-11-18T00:46:40;38.10;36.46;40.37;;
67308;Laerm;57662;51.436;5.978;2023-11-18T00:46:51;38.01;36.67;39.51;;
67308;Laerm;57662;51.436;5.978;2023-11-18T00:47:02;37.94;36.71;40.46;;
67308;Laerm;57662;51.436;5.978;2023-11-18T00:47:12;38.00;36.69;39.35;;
67308;Laerm;57662;51.436;5.978;2023-11-18T00:47:23;37.88;36.46;39.29;;
67308;Laerm;57662;51.436;5.978;2023-11-18T00:47:33;38.77;36.67;45.72;;
67308;Laerm;57662;51.436;5.978;2023-11-18T00:47:43;38.83;36.22;42.80;;
67308;Laerm;57662;51.436;5.978;2023-11-18T00:47:54;38.33;36.76;40.06;;
67308;Laerm;57662;51.436;5.978;2023-11-18T00:48:04;37.93;36.32;39.79;;
67308;Laerm;57662;51.436;5.978;2023-11-18T00:48:15;37.84;36.19;39.68;;
67308;Laerm;57662;51.436;5.978;2023-11-18T00:48:25;38.27;36.43;40.18;;
67308;Laerm;57662;51.436;5.978;2023-11-18T00:48:38;37.95;36.22;39.75;;
67308;Laerm;57662;51.436;5.978;2023-11-18T00:48:49;38.55;36.95;42.22;;
67308;Laerm;57662;51.436;5.978;2023-11-18T00:49:00;38.30;36.85;39.82;;
67308;Laerm;57662;51.436;5.978;2023-11-18T00:49:10;38.95;36.92;42.00;;
67308;Laerm;57662;51.436;5.978;2023-11-18T00:49:23;39.28;36.66;44.17;;
67308;Laerm;57662;51.436;5.978;2023-11-18T00:49:35;38.29;36.94;40.43;;
67308;Laerm;57662;51.436;5.978;2023-11-18T00:49:46;38.34;36.84;40.71;;
67308;Laerm;57662;51.436;5.978;2023-11-18T00:49:57;38.50;36.26;40.05;;
67308;Laerm;57662;51.436;5.978;2023-11-18T00:50:07;38.23;36.76;40.40;;
67308;Laerm;57662;51.436;5.978;2023-11-18T00:50:21;44.00;36.69;48.81;;
67308;Laerm;57662;51.436;5.978;2023-11-18T00:50:31;44.97;42.74;46.96;;
67308;Laerm;57662;51.436;5.978;2023-11-18T00:50:43;43.13;37.51;47.50;;
67308;Laerm;57662;51.436;5.978;2023-11-18T00:50:53;41.40;37.13;44.46;;
67308;Laerm;57662;51.436;5.978;2023-11-18T00:51:03;40.45;36.62;43.29;;
67308;Laerm;57662;51.436;5.978;2023-11-18T00:51:14;39.68;36.41;43.94;;
67308;Laerm;57662;51.436;5.978;2023-11-18T00:51:24;38.32;36.45;40.90;;
67308;Laerm;57662;51.436;5.978;2023-11-18T00:51:34;37.92;36.11;39.43;;
67308;Laerm;57662;51.436;5.978;2023-11-18T00:51:45;38.38;36.25;41.18;;
67308;Laerm;57662;51.436;5.978;2023-11-18T00:51:55;38.15;36.60;40.38;;
67308;Laerm;57662;51.436;5.978;2023-11-18T00:52:06;38.18;36.28;40.11;;
67308;Laerm;57662;51.436;5.978;2023-11-18T00:52:16;38.26;36.69;42.05;;
67308;Laerm;57662;51.436;5.978;2023-11-18T00:52:26;38.38;36.91;40.32;;
67308;Laerm;57662;51.436;5.978;2023-11-18T00:52:36;38.63;36.45;41.27;;
67308;Laerm;57662;51.436;5.978;2023-11-18T00:52:51;38.31;36.29;48.31;;
67308;Laerm;57662;51.436;5.978;2023-11-18T00:53:01;38.11;36.28;40.62;;
67308;Laerm;57662;51.436;5.978;2023-11-18T00:53:12;38.07;36.24;40.19;;
67308;Laerm;57662;51.436;5.978;2023-11-18T00:53:22;38.09;36.71;39.68;;
67308;Laerm;57662;51.436;5.978;2023-11-18T00:53:32;38.02;36.55;39.53;;
67308;Laerm;57662;51.436;5.978;2023-11-18T00:53:42;38.04;36.44;39.43;;
67308;Laerm;57662;51.436;5.978;2023-11-18T00:53:53;37.92;36.22;39.24;;
67308;Laerm;57662;51.436;5.978;2023-11-18T00:54:04;40.10;36.47;48.32;;
67308;Laerm;57662;51.436;5.978;2023-11-18T00:54:17;44.56;41.97;50.74;;
67308;Laerm;57662;51.436;5.978;2023-11-18T00:54:27;41.68;37.62;44.07;;
67308;Laerm;57662;51.436;5.978;2023-11-18T00:54:38;38.24;36.72;39.52;;
67308;Laerm;57662;51.436;5.978;2023-11-18T00:54:48;38.22;37.01;39.88;;
67308;Laerm;57662;51.436;5.978;2023-11-18T00:54:58;38.27;37.03;39.88;;
67308;Laerm;57662;51.436;5.978;2023-11-18T00:55:08;38.31;36.64;40.22;;
67308;Laerm;57662;51.436;5.978;2023-11-18T00:55:20;38.32;36.76;40.20;;
67308;Laerm;57662;51.436;5.978;2023-11-18T00:55:31;38.25;36.73;39.73;;
67308;Laerm;57662;51.436;5.978;2023-11-18T00:55:41;38.30;36.88;39.83;;
67308;Laerm;57662;51.436;5.978;2023-11-18T00:55:52;38.20;36.48;39.93;;
67308;Laerm;57662;51.436;5.978;2023-11-18T00:56:02;38.32;36.63;40.59;;
67308;Laerm;57662;51.436;5.978;2023-11-18T00:56:17;37.29;35.73;39.42;;
67308;Laerm;57662;51.436;5.978;2023-11-18T00:56:28;37.37;36.00;39.56;;
67308;Laerm;57662;51.436;5.978;2023-11-18T00:56:38;37.57;36.31;39.05;;
67308;Laerm;57662;51.436;5.978;2023-11-18T00:56:49;37.67;36.35;44.65;;
67308;Laerm;57662;51.436;5.978;2023-11-18T00:56:59;37.79;36.68;39.52;;
67308;Laerm;57662;51.436;5.978;2023-11-18T00:57:09;37.56;36.10;39.99;;
67308;Laerm;57662;51.436;5.978;2023-11-18T00:57:19;37.49;36.16;39.22;;
67308;Laerm;57662;51.436;5.978;2023-11-18T00:57:30;37.90;36.20;41.18;;
67308;Laerm;57662;51.436;5.978;2023-11-18T00:57:41;38.57;36.53;43.07;;
67308;Laerm;57662;51.436;5.978;2023-11-18T00:57:51;38.35;36.06;40.98;;
67308;Laerm;57662;51.436;5.978;2023-11-18T00:58:02;38.03;36.26;40.65;;
67308;Laerm;57662;51.436;5.978;2023-11-18T00:58:12;37.97;36.29;40.50;;
67308;Laerm;57662;51.436;5.978;2023-11-18T00:58:23;37.54;36.07;39.24;;
67308;Laerm;57662;51.436;5.978;2023-11-18T00:58:33;37.49;36.08;38.97;;
67308;Laerm;57662;51.436;5.978;2023-11-18T00:58:49;37.90;36.02;41.01;;
67308;Laerm;57662;51.436;5.978;2023-11-18T00:58:59;38.75;36.66;40.89;;
67308;Laerm;57662;51.436;5.978;2023-11-18T00:59:11;38.05;35.98;40.92;;
67308;Laerm;57662;51.436;5.978;2023-11-18T00:59:21;38.46;36.40;40.90;;
67308;Laerm;57662;51.436;5.978;2023-11-18T00:59:31;38.20;36.00;39.99;;
67308;Laerm;57662;51.436;5.978;2023-11-18T00:59:42;38.31;36.02;40.74;;